الصفحة الرئيسية
METAR-TAF:

METAR-TAF

مطار :

جزيرة بياك, إندونيسيا

دائرة عرض: 01-11S, خط طول: 136-07E, ارتفاع: 11 متر

METAR: مفقودة

زمن: 23:40 (16:40 UTC)

توقعات

تاريخ ووقت الإصدار 5ساعات و 40 دقيقة قبل الساعة 11:00UTC
التوقعات صالحة من11 الساعة 12 UTC إلى 12 الساعة 18 UTC
ريح 5 عقدة من الشمال/الشمال الغربي
الرؤية 10 كم أو أكثر
غيوم متفرقة على ارتفاع 1800 قدم
مؤقت
من 11 الساعة 16 UTC إلى 11 الساعة 20 UTC
الرؤية: 5000 متر
غيوم قليلة على ارتفاع 1700 قدم, مزنة ركامية.
مطر
أصبح
من 11 الساعة 22 UTC إلى 12 الساعة 00 UTC
ريح 12 عقدة من الغرب

TAF: WABB 111100Z 1112/1218 33005KT 9999 SCT018 TEMPO 1116/1120 5000 RA FEW017CB BECMG 1122/1200 26012KT

أرصاد الطقس والتوقعات من أكثر من 4000 مطار (تقارير الطقس للمطار METAR والتنبؤ بالطقس بالمطارTAF).

المحطات المتاحة هي النقط الصفراء والحمراء على الخريطة.

حرك المؤشر فوق النقطة لمعرفة اسم المحطة.

ثم انقر لمعرفة أرصاد وتوقعات الطقس.

لتغيير الخارطة: اضغط على الأزرار الخضراء مع رمز الصليب الأسود للتكبير. على الزر الأخضر مع شرطة للتصغير، أو على الأسهم الخضراء للخرائط المجاورة.


METAR-TAF: